sensor_id;sensor_type;location;lat;lon;timestamp;P1;durP1;ratioP1;P2;durP2;ratioP2
45909;SDS011;31622;55.416;37.840;2023-03-01T00:00:40;1.65;;;0.50;;
45909;SDS011;31622;55.416;37.840;2023-03-01T00:03:06;1.42;;;0.52;;
45909;SDS011;31622;55.416;37.840;2023-03-01T00:05:32;1.88;;;0.50;;
45909;SDS011;31622;55.416;37.840;2023-03-01T00:07:58;2.13;;;0.60;;
45909;SDS011;31622;55.416;37.840;2023-03-01T00:10:24;1.13;;;0.50;;
45909;SDS011;31622;55.416;37.840;2023-03-01T00:12:49;2.40;;;0.65;;
45909;SDS011;31622;55.416;37.840;2023-03-01T00:15:15;2.13;;;0.70;;
45909;SDS011;31622;55.416;37.840;2023-03-01T00:17:41;2.13;;;0.60;;
45909;SDS011;31622;55.416;37.840;2023-03-01T00:20:07;0.80;;;0.35;;
45909;SDS011;31622;55.416;37.840;2023-03-01T00:22:35;1.80;;;0.60;;
45909;SDS011;31622;55.416;37.840;2023-03-01T00:25:01;0.75;;;0.30;;
45909;SDS011;31622;55.416;37.840;2023-03-01T00:27:28;1.92;;;0.60;;
45909;SDS011;31622;55.416;37.840;2023-03-01T00:29:53;1.75;;;0.68;;
45909;SDS011;31622;55.416;37.840;2023-03-01T00:32:19;0.95;;;0.50;;
45909;SDS011;31622;55.416;37.840;2023-03-01T00:34:45;2.10;;;0.98;;
45909;SDS011;31622;55.416;37.840;2023-03-01T00:37:22;1.40;;;0.50;;
45909;SDS011;31622;55.416;37.840;2023-03-01T00:39:48;1.48;;;0.40;;
45909;SDS011;31622;55.416;37.840;2023-03-01T00:42:15;0.88;;;0.38;;
45909;SDS011;31622;55.416;37.840;2023-03-01T00:44:41;0.70;;;0.40;;
45909;SDS011;31622;55.416;37.840;2023-03-01T00:47:06;1.33;;;0.50;;
45909;SDS011;31622;55.416;37.840;2023-03-01T00:49:32;1.27;;;0.40;;
45909;SDS011;31622;55.416;37.840;2023-03-01T00:51:58;1.35;;;0.70;;
45909;SDS011;31622;55.416;37.840;2023-03-01T00:54:23;3.30;;;0.75;;
45909;SDS011;31622;55.416;37.840;2023-03-01T00:56:49;1.17;;;0.43;;
45909;SDS011;31622;55.416;37.840;2023-03-01T00:59:15;1.10;;;0.52;;
45909;SDS011;31622;55.416;37.840;2023-03-01T01:01:40;1.02;;;0.40;;
45909;SDS011;31622;55.416;37.840;2023-03-01T01:04:08;1.75;;;0.70;;
45909;SDS011;31622;55.416;37.840;2023-03-01T01:06:37;1.13;;;0.50;;
45909;SDS011;31622;55.416;37.840;2023-03-01T01:09:06;1.38;;;0.50;;
45909;SDS011;31622;55.416;37.840;2023-03-01T01:11:32;2.83;;;0.50;;
45909;SDS011;31622;55.416;37.840;2023-03-01T01:13:58;1.77;;;0.88;;
45909;SDS011;31622;55.416;37.840;2023-03-01T01:16:25;4.90;;;0.70;;
45909;SDS011;31622;55.416;37.840;2023-03-01T01:18:52;1.65;;;0.60;;
45909;SDS011;31622;55.416;37.840;2023-03-01T01:21:18;1.15;;;0.55;;
45909;SDS011;31622;55.416;37.840;2023-03-01T01:23:46;2.25;;;0.55;;
45909;SDS011;31622;55.416;37.840;2023-03-01T01:26:13;1.88;;;0.70;;
45909;SDS011;31622;55.416;37.840;2023-03-01T01:28:40;0.77;;;0.45;;
45909;SDS011;31622;55.416;37.840;2023-03-01T01:31:06;1.75;;;0.60;;
45909;SDS011;31622;55.416;37.840;2023-03-01T01:33:32;1.23;;;0.50;;
45909;SDS011;31622;55.416;37.840;2023-03-01T01:35:58;1.25;;;0.50;;
45909;SDS011;31622;55.416;37.840;2023-03-01T01:38:24;1.80;;;0.60;;
45909;SDS011;31622;55.416;37.840;2023-03-01T01:40:50;3.00;;;0.60;;
45909;SDS011;31622;55.416;37.840;2023-03-01T01:43:22;1.70;;;0.45;;
45909;SDS011;31622;55.416;37.840;2023-03-01T01:45:48;1.33;;;0.60;;
45909;SDS011;31622;55.416;37.840;2023-03-01T01:48:16;1.15;;;0.50;;
45909;SDS011;31622;55.416;37.840;2023-03-01T01:50:55;1.75;;;0.63;;
45909;SDS011;31622;55.416;37.840;2023-03-01T01:53:23;2.03;;;0.63;;
45909;SDS011;31622;55.416;37.840;2023-03-01T01:55:53;2.45;;;0.60;;
45909;SDS011;31622;55.416;37.840;2023-03-01T01:58:22;1.00;;;0.52;;
45909;SDS011;31622;55.416;37.840;2023-03-01T02:00:49;1.95;;;0.50;;
45909;SDS011;31622;55.416;37.840;2023-03-01T02:03:20;1.70;;;0.60;;
45909;SDS011;31622;55.416;37.840;2023-03-01T02:08:41;1.08;;;0.52;;
45909;SDS011;31622;55.416;37.840;2023-03-01T02:11:07;1.67;;;1.00;;
45909;SDS011;31622;55.416;37.840;2023-03-01T02:13:34;1.25;;;0.60;;
45909;SDS011;31622;55.416;37.840;2023-03-01T02:16:04;1.23;;;0.52;;
45909;SDS011;31622;55.416;37.840;2023-03-01T02:18:30;3.92;;;0.80;;
45909;SDS011;31622;55.416;37.840;2023-03-01T02:23:30;1.73;;;0.68;;
45909;SDS011;31622;55.416;37.840;2023-03-01T02:25:58;2.05;;;0.70;;
45909;SDS011;31622;55.416;37.840;2023-03-01T02:28:39;2.92;;;0.80;;
45909;SDS011;31622;55.416;37.840;2023-03-01T02:31:07;1.45;;;0.70;;
45909;SDS011;31622;55.416;37.840;2023-03-01T02:33:51;1.33;;;0.73;;
45909;SDS011;31622;55.416;37.840;2023-03-01T02:36:22;1.70;;;0.70;;
45909;SDS011;31622;55.416;37.840;2023-03-01T02:38:50;5.57;;;0.80;;
45909;SDS011;31622;55.416;37.840;2023-03-01T02:41:17;4.30;;;1.02;;
45909;SDS011;31622;55.416;37.840;2023-03-01T02:43:45;3.10;;;0.70;;
45909;SDS011;31622;55.416;37.840;2023-03-01T02:46:15;2.63;;;0.60;;
45909;SDS011;31622;55.416;37.840;2023-03-01T02:48:48;2.85;;;0.95;;
45909;SDS011;31622;55.416;37.840;2023-03-01T02:54:06;2.50;;;0.70;;
45909;SDS011;31622;55.416;37.840;2023-03-01T02:56:34;3.75;;;1.30;;
45909;SDS011;31622;55.416;37.840;2023-03-01T02:59:00;2.10;;;0.70;;
45909;SDS011;31622;55.416;37.840;2023-03-01T03:01:28;3.35;;;1.02;;
45909;SDS011;31622;55.416;37.840;2023-03-01T03:04:05;3.00;;;0.70;;
45909;SDS011;31622;55.416;37.840;2023-03-01T03:06:33;2.20;;;0.82;;
45909;SDS011;31622;55.416;37.840;2023-03-01T03:08:59;1.63;;;0.60;;
45909;SDS011;31622;55.416;37.840;2023-03-01T03:11:25;1.52;;;0.60;;
45909;SDS011;31622;55.416;37.840;2023-03-01T03:13:51;2.10;;;0.70;;
45909;SDS011;31622;55.416;37.840;2023-03-01T03:16:18;1.75;;;0.50;;
45909;SDS011;31622;55.416;37.840;2023-03-01T03:18:44;2.25;;;0.65;;
45909;SDS011;31622;55.416;37.840;2023-03-01T03:21:11;3.30;;;0.70;;
45909;SDS011;31622;55.416;37.840;2023-03-01T03:23:37;2.90;;;0.80;;
45909;SDS011;31622;55.416;37.840;2023-03-01T03:26:03;1.90;;;0.88;;
45909;SDS011;31622;55.416;37.840;2023-03-01T03:28:30;1.30;;;0.60;;
45909;SDS011;31622;55.416;37.840;2023-03-01T03:30:57;1.83;;;0.77;;
45909;SDS011;31622;55.416;37.840;2023-03-01T03:33:24;2.75;;;0.77;;
45909;SDS011;31622;55.416;37.840;2023-03-01T03:35:49;4.05;;;1.00;;
45909;SDS011;31622;55.416;37.840;2023-03-01T03:38:16;2.38;;;0.88;;
45909;SDS011;31622;55.416;37.840;2023-03-01T03:43:30;3.55;;;1.20;;
45909;SDS011;31622;55.416;37.840;2023-03-01T03:45:57;2.05;;;0.80;;
45909;SDS011;31622;55.416;37.840;2023-03-01T03:48:23;2.70;;;0.98;;
45909;SDS011;31622;55.416;37.840;2023-03-01T03:50:53;2.78;;;1.10;;
45909;SDS011;31622;55.416;37.840;2023-03-01T03:53:20;4.32;;;1.08;;
45909;SDS011;31622;55.416;37.840;2023-03-01T03:55:47;2.80;;;0.60;;
45909;SDS011;31622;55.416;37.840;2023-03-01T03:58:14;1.90;;;0.90;;
45909;SDS011;31622;55.416;37.840;2023-03-01T04:00:42;2.65;;;0.82;;
45909;SDS011;31622;55.416;37.840;2023-03-01T04:03:09;2.67;;;0.90;;
45909;SDS011;31622;55.416;37.840;2023-03-01T04:05:36;2.08;;;0.63;;
45909;SDS011;31622;55.416;37.840;2023-03-01T04:08:02;4.00;;;0.70;;
45909;SDS011;31622;55.416;37.840;2023-03-01T04:10:29;2.38;;;0.80;;
45909;SDS011;31622;55.416;37.840;2023-03-01T04:12:56;1.10;;;0.68;;
45909;SDS011;31622;55.416;37.840;2023-03-01T04:15:22;2.10;;;0.80;;
45909;SDS011;31622;55.416;37.840;2023-03-01T04:17:49;4.43;;;1.00;;
45909;SDS011;31622;55.416;37.840;2023-03-01T04:20:26;1.70;;;0.80;;
45909;SDS011;31622;55.416;37.840;2023-03-01T04:25:24;5.80;;;0.95;;
45909;SDS011;31622;55.416;37.840;2023-03-01T04:27:52;4.20;;;0.80;;
45909;SDS011;31622;55.416;37.840;2023-03-01T04:30:17;3.90;;;0.63;;
45909;SDS011;31622;55.416;37.840;2023-03-01T04:32:43;2.38;;;1.02;;
45909;SDS011;31622;55.416;37.840;2023-03-01T04:35:08;7.45;;;2.72;;
45909;SDS011;31622;55.416;37.840;2023-03-01T04:37:34;13.70;;;3.70;;
45909;SDS011;31622;55.416;37.840;2023-03-01T04:40:01;6.93;;;2.95;;
45909;SDS011;31622;55.416;37.840;2023-03-01T04:42:37;5.70;;;2.03;;
45909;SDS011;31622;55.416;37.840;2023-03-01T04:45:03;5.25;;;2.00;;
45909;SDS011;31622;55.416;37.840;2023-03-01T04:47:44;5.10;;;1.50;;
45909;SDS011;31622;55.416;37.840;2023-03-01T04:50:12;4.47;;;1.45;;
45909;SDS011;31622;55.416;37.840;2023-03-01T04:52:39;6.88;;;2.13;;
45909;SDS011;31622;55.416;37.840;2023-03-01T04:55:05;4.63;;;1.85;;
45909;SDS011;31622;55.416;37.840;2023-03-01T04:57:31;2.58;;;1.42;;
45909;SDS011;31622;55.416;37.840;2023-03-01T04:59:57;5.57;;;1.20;;
45909;SDS011;31622;55.416;37.840;2023-03-01T05:02:23;4.50;;;1.75;;
45909;SDS011;31622;55.416;37.840;2023-03-01T05:04:49;3.05;;;1.23;;
45909;SDS011;31622;55.416;37.840;2023-03-01T05:07:14;3.53;;;1.52;;
45909;SDS011;31622;55.416;37.840;2023-03-01T05:09:47;3.55;;;1.15;;
45909;SDS011;31622;55.416;37.840;2023-03-01T05:12:14;3.65;;;1.30;;
45909;SDS011;31622;55.416;37.840;2023-03-01T05:14:40;2.10;;;1.00;;
45909;SDS011;31622;55.416;37.840;2023-03-01T05:17:06;3.42;;;1.73;;
45909;SDS011;31622;55.416;37.840;2023-03-01T05:19:32;3.00;;;1.33;;
45909;SDS011;31622;55.416;37.840;2023-03-01T05:21:58;3.65;;;1.08;;
45909;SDS011;31622;55.416;37.840;2023-03-01T05:24:29;3.33;;;1.27;;
45909;SDS011;31622;55.416;37.840;2023-03-01T05:26:56;5.65;;;1.40;;
45909;SDS011;31622;55.416;37.840;2023-03-01T05:29:23;2.88;;;1.27;;
45909;SDS011;31622;55.416;37.840;2023-03-01T05:31:56;4.60;;;1.50;;
45909;SDS011;31622;55.416;37.840;2023-03-01T05:34:28;3.08;;;1.10;;
45909;SDS011;31622;55.416;37.840;2023-03-01T05:36:55;4.28;;;1.42;;
45909;SDS011;31622;55.416;37.840;2023-03-01T05:39:25;3.47;;;1.42;;
45909;SDS011;31622;55.416;37.840;2023-03-01T05:41:52;5.25;;;1.38;;
45909;SDS011;31622;55.416;37.840;2023-03-01T05:44:19;2.80;;;1.60;;
45909;SDS011;31622;55.416;37.840;2023-03-01T05:46:45;4.45;;;2.42;;
45909;SDS011;31622;55.416;37.840;2023-03-01T05:49:11;6.88;;;3.05;;
45909;SDS011;31622;55.416;37.840;2023-03-01T05:51:38;5.40;;;2.97;;
45909;SDS011;31622;55.416;37.840;2023-03-01T05:54:08;9.10;;;3.90;;
45909;SDS011;31622;55.416;37.840;2023-03-01T05:56:35;6.82;;;3.10;;
45909;SDS011;31622;55.416;37.840;2023-03-01T05:59:02;6.18;;;3.10;;
45909;SDS011;31622;55.416;37.840;2023-03-01T06:01:30;6.85;;;3.85;;
45909;SDS011;31622;55.416;37.840;2023-03-01T06:03:56;6.13;;;3.60;;
45909;SDS011;31622;55.416;37.840;2023-03-01T06:06:22;5.80;;;3.55;;
45909;SDS011;31622;55.416;37.840;2023-03-01T06:08:49;9.05;;;3.70;;
45909;SDS011;31622;55.416;37.840;2023-03-01T06:11:15;5.63;;;3.30;;
45909;SDS011;31622;55.416;37.840;2023-03-01T06:13:44;7.03;;;3.63;;
45909;SDS011;31622;55.416;37.840;2023-03-01T06:16:10;5.30;;;3.47;;
45909;SDS011;31622;55.416;37.840;2023-03-01T06:18:36;13.23;;;4.20;;
45909;SDS011;31622;55.416;37.840;2023-03-01T06:21:02;6.30;;;3.20;;
45909;SDS011;31622;55.416;37.840;2023-03-01T06:23:29;6.43;;;3.70;;
45909;SDS011;31622;55.416;37.840;2023-03-01T06:25:55;8.88;;;3.75;;
45909;SDS011;31622;55.416;37.840;2023-03-01T06:28:20;6.47;;;3.67;;
45909;SDS011;31622;55.416;37.840;2023-03-01T06:30:46;7.70;;;3.25;;
45909;SDS011;31622;55.416;37.840;2023-03-01T06:33:12;5.63;;;3.88;;
45909;SDS011;31622;55.416;37.840;2023-03-01T06:35:38;7.18;;;3.33;;
45909;SDS011;31622;55.416;37.840;2023-03-01T06:38:04;5.93;;;2.80;;
45909;SDS011;31622;55.416;37.840;2023-03-01T06:40:30;5.50;;;2.67;;
45909;SDS011;31622;55.416;37.840;2023-03-01T06:42:56;6.00;;;2.72;;
45909;SDS011;31622;55.416;37.840;2023-03-01T06:45:22;4.57;;;2.85;;
45909;SDS011;31622;55.416;37.840;2023-03-01T06:47:49;4.75;;;2.40;;
45909;SDS011;31622;55.416;37.840;2023-03-01T06:50:15;5.53;;;2.65;;
45909;SDS011;31622;55.416;37.840;2023-03-01T06:52:42;6.03;;;2.83;;
45909;SDS011;31622;55.416;37.840;2023-03-01T06:55:10;6.28;;;2.95;;
45909;SDS011;31622;55.416;37.840;2023-03-01T06:57:36;5.28;;;2.58;;
45909;SDS011;31622;55.416;37.840;2023-03-01T07:00:03;5.50;;;3.10;;
45909;SDS011;31622;55.416;37.840;2023-03-01T07:02:29;4.68;;;2.78;;
45909;SDS011;31622;55.416;37.840;2023-03-01T07:04:55;5.63;;;2.25;;
45909;SDS011;31622;55.416;37.840;2023-03-01T07:07:21;4.13;;;2.85;;
45909;SDS011;31622;55.416;37.840;2023-03-01T07:09:48;4.72;;;2.25;;
45909;SDS011;31622;55.416;37.840;2023-03-01T07:12:14;4.65;;;1.90;;
45909;SDS011;31622;55.416;37.840;2023-03-01T07:14:40;4.88;;;2.10;;
45909;SDS011;31622;55.416;37.840;2023-03-01T07:17:06;4.15;;;1.50;;
45909;SDS011;31622;55.416;37.840;2023-03-01T07:19:32;5.25;;;2.45;;
45909;SDS011;31622;55.416;37.840;2023-03-01T07:21:57;3.95;;;1.95;;
45909;SDS011;31622;55.416;37.840;2023-03-01T07:24:23;3.35;;;1.80;;
45909;SDS011;31622;55.416;37.840;2023-03-01T07:26:49;2.95;;;1.70;;
45909;SDS011;31622;55.416;37.840;2023-03-01T07:29:15;2.70;;;1.60;;
45909;SDS011;31622;55.416;37.840;2023-03-01T07:31:41;3.85;;;1.50;;
45909;SDS011;31622;55.416;37.840;2023-03-01T07:34:07;3.95;;;1.67;;
45909;SDS011;31622;55.416;37.840;2023-03-01T07:36:33;3.42;;;1.60;;
45909;SDS011;31622;55.416;37.840;2023-03-01T07:38:58;7.85;;;1.98;;
45909;SDS011;31622;55.416;37.840;2023-03-01T07:41:25;7.65;;;2.00;;
45909;SDS011;31622;55.416;37.840;2023-03-01T07:43:51;6.90;;;1.85;;
45909;SDS011;31622;55.416;37.840;2023-03-01T07:46:16;4.60;;;1.60;;
45909;SDS011;31622;55.416;37.840;2023-03-01T07:48:44;6.03;;;1.63;;
45909;SDS011;31622;55.416;37.840;2023-03-01T07:51:10;6.45;;;2.42;;
45909;SDS011;31622;55.416;37.840;2023-03-01T07:53:36;7.13;;;1.63;;
45909;SDS011;31622;55.416;37.840;2023-03-01T07:56:08;5.70;;;1.70;;
45909;SDS011;31622;55.416;37.840;2023-03-01T07:58:39;5.07;;;1.60;;
45909;SDS011;31622;55.416;37.840;2023-03-01T08:01:07;4.20;;;1.55;;
45909;SDS011;31622;55.416;37.840;2023-03-01T08:03:35;4.63;;;1.85;;
45909;SDS011;31622;55.416;37.840;2023-03-01T08:06:02;4.78;;;1.65;;
45909;SDS011;31622;55.416;37.840;2023-03-01T08:08:28;4.75;;;1.98;;
45909;SDS011;31622;55.416;37.840;2023-03-01T08:10:58;4.82;;;1.58;;
45909;SDS011;31622;55.416;37.840;2023-03-01T08:13:24;3.55;;;1.48;;
45909;SDS011;31622;55.416;37.840;2023-03-01T08:15:50;6.68;;;1.92;;
45909;SDS011;31622;55.416;37.840;2023-03-01T08:18:17;5.43;;;2.10;;
45909;SDS011;31622;55.416;37.840;2023-03-01T08:20:43;3.63;;;1.90;;
45909;SDS011;31622;55.416;37.840;2023-03-01T08:23:09;4.78;;;2.15;;
45909;SDS011;31622;55.416;37.840;2023-03-01T08:25:35;5.47;;;1.40;;
45909;SDS011;31622;55.416;37.840;2023-03-01T08:28:00;17.58;;;4.65;;
45909;SDS011;31622;55.416;37.840;2023-03-01T08:30:26;154.57;;;27.17;;
45909;SDS011;31622;55.416;37.840;2023-03-01T08:32:52;191.48;;;38.38;;
45909;SDS011;31622;55.416;37.840;2023-03-01T08:35:18;142.18;;;28.15;;
45909;SDS011;31622;55.416;37.840;2023-03-01T08:37:44;99.50;;;18.98;;
45909;SDS011;31622;55.416;37.840;2023-03-01T08:40:10;97.22;;;17.17;;
45909;SDS011;31622;55.416;37.840;2023-03-01T08:42:38;73.63;;;14.63;;
45909;SDS011;31622;55.416;37.840;2023-03-01T08:45:11;66.63;;;14.10;;
45909;SDS011;31622;55.416;37.840;2023-03-01T08:47:37;50.70;;;11.68;;
45909;SDS011;31622;55.416;37.840;2023-03-01T08:50:03;48.47;;;12.30;;
45909;SDS011;31622;55.416;37.840;2023-03-01T08:52:29;44.88;;;9.90;;
45909;SDS011;31622;55.416;37.840;2023-03-01T08:54:55;42.97;;;9.68;;
45909;SDS011;31622;55.416;37.840;2023-03-01T08:57:21;36.33;;;9.38;;
45909;SDS011;31622;55.416;37.840;2023-03-01T08:59:47;38.03;;;9.25;;
45909;SDS011;31622;55.416;37.840;2023-03-01T09:02:14;33.58;;;8.40;;
45909;SDS011;31622;55.416;37.840;2023-03-01T09:04:41;35.70;;;7.97;;
45909;SDS011;31622;55.416;37.840;2023-03-01T09:07:07;30.35;;;7.32;;
45909;SDS011;31622;55.416;37.840;2023-03-01T09:09:33;28.27;;;7.30;;
45909;SDS011;31622;55.416;37.840;2023-03-01T09:11:59;27.15;;;6.80;;
45909;SDS011;31622;55.416;37.840;2023-03-01T09:14:24;20.42;;;6.03;;
45909;SDS011;31622;55.416;37.840;2023-03-01T09:16:50;26.13;;;6.15;;
45909;SDS011;31622;55.416;37.840;2023-03-01T09:19:16;25.58;;;5.78;;
45909;SDS011;31622;55.416;37.840;2023-03-01T09:21:41;24.10;;;6.85;;
45909;SDS011;31622;55.416;37.840;2023-03-01T09:24:17;19.40;;;4.97;;
45909;SDS011;31622;55.416;37.840;2023-03-01T09:26:44;18.67;;;4.50;;
45909;SDS011;31622;55.416;37.840;2023-03-01T09:29:12;15.82;;;4.65;;
45909;SDS011;31622;55.416;37.840;2023-03-01T09:31:39;16.70;;;4.57;;
45909;SDS011;31622;55.416;37.840;2023-03-01T09:34:05;16.60;;;3.97;;
45909;SDS011;31622;55.416;37.840;2023-03-01T09:36:32;15.70;;;3.90;;
45909;SDS011;31622;55.416;37.840;2023-03-01T09:38:58;11.05;;;3.45;;
45909;SDS011;31622;55.416;37.840;2023-03-01T09:46:39;13.02;;;3.63;;
45909;SDS011;31622;55.416;37.840;2023-03-01T09:49:12;13.77;;;4.40;;
45909;SDS011;31622;55.416;37.840;2023-03-01T09:51:42;11.45;;;3.10;;
45909;SDS011;31622;55.416;37.840;2023-03-01T09:54:08;8.27;;;2.60;;
45909;SDS011;31622;55.416;37.840;2023-03-01T09:56:44;11.40;;;2.80;;
45909;SDS011;31622;55.416;37.840;2023-03-01T10:04:50;9.10;;;2.70;;
45909;SDS011;31622;55.416;37.840;2023-03-01T10:10:07;5.57;;;2.35;;
45909;SDS011;31622;55.416;37.840;2023-03-01T10:12:48;7.47;;;2.13;;
45909;SDS011;31622;55.416;37.840;2023-03-01T10:15:15;10.07;;;2.08;;
45909;SDS011;31622;55.416;37.840;2023-03-01T10:17:46;8.82;;;2.00;;
45909;SDS011;31622;55.416;37.840;2023-03-01T10:20:18;7.50;;;2.17;;
45909;SDS011;31622;55.416;37.840;2023-03-01T10:22:49;5.95;;;1.60;;
45909;SDS011;31622;55.416;37.840;2023-03-01T10:28:10;6.55;;;1.73;;
45909;SDS011;31622;55.416;37.840;2023-03-01T10:30:45;5.85;;;1.80;;
45909;SDS011;31622;55.416;37.840;2023-03-01T10:33:20;5.85;;;1.67;;
45909;SDS011;31622;55.416;37.840;2023-03-01T10:35:48;3.67;;;1.23;;
45909;SDS011;31622;55.416;37.840;2023-03-01T10:38:15;5.10;;;1.95;;
45909;SDS011;31622;55.416;37.840;2023-03-01T10:40:57;6.10;;;1.70;;
45909;SDS011;31622;55.416;37.840;2023-03-01T10:43:32;5.63;;;1.58;;
45909;SDS011;31622;55.416;37.840;2023-03-01T10:51:45;6.72;;;1.75;;
45909;SDS011;31622;55.416;37.840;2023-03-01T10:54:28;2.72;;;1.25;;
45909;SDS011;31622;55.416;37.840;2023-03-01T10:56:55;5.28;;;1.67;;
45909;SDS011;31622;55.416;37.840;2023-03-01T11:04:55;7.53;;;1.80;;
45909;SDS011;31622;55.416;37.840;2023-03-01T11:07:21;2.97;;;1.00;;
45909;SDS011;31622;55.416;37.840;2023-03-01T11:09:47;2.42;;;1.20;;
45909;SDS011;31622;55.416;37.840;2023-03-01T11:12:13;4.45;;;1.50;;
45909;SDS011;31622;55.416;37.840;2023-03-01T11:14:46;3.17;;;0.98;;
45909;SDS011;31622;55.416;37.840;2023-03-01T11:17:23;3.13;;;1.00;;
45909;SDS011;31622;55.416;37.840;2023-03-01T11:22:30;2.80;;;1.08;;
45909;SDS011;31622;55.416;37.840;2023-03-01T11:24:58;2.50;;;1.00;;
45909;SDS011;31622;55.416;37.840;2023-03-01T11:27:25;2.22;;;1.45;;
45909;SDS011;31622;55.416;37.840;2023-03-01T11:30:01;3.47;;;0.93;;
45909;SDS011;31622;55.416;37.840;2023-03-01T11:32:33;4.40;;;1.13;;
45909;SDS011;31622;55.416;37.840;2023-03-01T11:35:05;1.75;;;1.00;;
45909;SDS011;31622;55.416;37.840;2023-03-01T11:40:31;2.80;;;1.42;;
45909;SDS011;31622;55.416;37.840;2023-03-01T11:43:04;4.00;;;1.23;;
45909;SDS011;31622;55.416;37.840;2023-03-01T12:05:20;1.53;;;0.70;;
45909;SDS011;31622;55.416;37.840;2023-03-01T12:22:01;2.72;;;1.00;;
45909;SDS011;31622;55.416;37.840;2023-03-01T12:27:44;1.63;;;0.75;;
45909;SDS011;31622;55.416;37.840;2023-03-01T12:30:42;4.32;;;0.95;;
45909;SDS011;31622;55.416;37.840;2023-03-01T12:38:49;2.10;;;0.70;;
45909;SDS011;31622;55.416;37.840;2023-03-01T12:41:25;1.90;;;0.80;;
45909;SDS011;31622;55.416;37.840;2023-03-01T12:49:28;2.65;;;0.80;;
45909;SDS011;31622;55.416;37.840;2023-03-01T12:55:31;2.08;;;0.73;;
45909;SDS011;31622;55.416;37.840;2023-03-01T13:00:28;2.40;;;0.80;;
45909;SDS011;31622;55.416;37.840;2023-03-01T13:03:48;2.85;;;1.17;;
45909;SDS011;31622;55.416;37.840;2023-03-01T13:11:43;2.17;;;0.60;;
45909;SDS011;31622;55.416;37.840;2023-03-01T13:16:51;4.20;;;1.17;;
45909;SDS011;31622;55.416;37.840;2023-03-01T13:21:47;3.25;;;0.70;;
45909;SDS011;31622;55.416;37.840;2023-03-01T13:29:32;2.53;;;0.80;;
45909;SDS011;31622;55.416;37.840;2023-03-01T13:32:18;9.15;;;1.13;;
45909;SDS011;31622;55.416;37.840;2023-03-01T13:34:45;2.13;;;0.73;;
45909;SDS011;31622;55.416;37.840;2023-03-01T13:37:20;3.42;;;0.90;;
45909;SDS011;31622;55.416;37.840;2023-03-01T13:39:51;3.47;;;0.90;;
45909;SDS011;31622;55.416;37.840;2023-03-01T13:48:08;3.35;;;0.70;;
45909;SDS011;31622;55.416;37.840;2023-03-01T13:51:04;1.25;;;0.50;;
45909;SDS011;31622;55.416;37.840;2023-03-01T13:53:36;1.50;;;0.60;;
45909;SDS011;31622;55.416;37.840;2023-03-01T13:56:08;3.25;;;0.93;;
45909;SDS011;31622;55.416;37.840;2023-03-01T13:58:51;4.18;;;0.75;;
45909;SDS011;31622;55.416;37.840;2023-03-01T14:01:22;1.80;;;0.60;;
45909;SDS011;31622;55.416;37.840;2023-03-01T14:06:19;2.20;;;0.65;;
45909;SDS011;31622;55.416;37.840;2023-03-01T14:08:50;1.35;;;0.50;;
45909;SDS011;31622;55.416;37.840;2023-03-01T14:16:49;3.92;;;0.50;;
45909;SDS011;31622;55.416;37.840;2023-03-01T14:19:26;3.80;;;0.98;;
45909;SDS011;31622;55.416;37.840;2023-03-01T14:21:59;3.50;;;0.47;;
45909;SDS011;31622;55.416;37.840;2023-03-01T14:24:39;3.35;;;0.80;;
45909;SDS011;31622;55.416;37.840;2023-03-01T14:27:11;2.55;;;0.90;;
45909;SDS011;31622;55.416;37.840;2023-03-01T14:29:38;2.72;;;0.50;;
45909;SDS011;31622;55.416;37.840;2023-03-01T14:32:09;1.42;;;0.60;;
45909;SDS011;31622;55.416;37.840;2023-03-01T14:34:46;1.50;;;0.43;;
45909;SDS011;31622;55.416;37.840;2023-03-01T14:39:58;1.80;;;0.52;;
45909;SDS011;31622;55.416;37.840;2023-03-01T14:42:26;2.25;;;1.08;;
45909;SDS011;31622;55.416;37.840;2023-03-01T14:44:55;6.90;;;1.05;;
45909;SDS011;31622;55.416;37.840;2023-03-01T14:47:26;7.97;;;0.80;;
45909;SDS011;31622;55.416;37.840;2023-03-01T14:50:30;2.60;;;0.93;;
45909;SDS011;31622;55.416;37.840;2023-03-01T14:52:50;3.40;;;0.57;;
45909;SDS011;31622;55.416;37.840;2023-03-01T14:55:20;3.58;;;0.70;;
45909;SDS011;31622;55.416;37.840;2023-03-01T14:57:49;1.23;;;0.50;;
45909;SDS011;31622;55.416;37.840;2023-03-01T15:00:26;1.98;;;0.60;;
45909;SDS011;31622;55.416;37.840;2023-03-01T15:02:56;1.48;;;0.57;;
45909;SDS011;31622;55.416;37.840;2023-03-01T15:05:32;3.08;;;0.80;;
45909;SDS011;31622;55.416;37.840;2023-03-01T15:07:59;3.42;;;0.70;;
45909;SDS011;31622;55.416;37.840;2023-03-01T15:10:27;1.70;;;0.68;;
45909;SDS011;31622;55.416;37.840;2023-03-01T15:12:54;1.00;;;0.45;;
45909;SDS011;31622;55.416;37.840;2023-03-01T15:15:37;2.45;;;0.80;;
45909;SDS011;31622;55.416;37.840;2023-03-01T15:18:17;1.15;;;0.45;;
45909;SDS011;31622;55.416;37.840;2023-03-01T15:20:45;1.02;;;0.40;;
45909;SDS011;31622;55.416;37.840;2023-03-01T15:23:33;0.90;;;0.50;;
45909;SDS011;31622;55.416;37.840;2023-03-01T15:25:58;3.13;;;0.70;;
45909;SDS011;31622;55.416;37.840;2023-03-01T15:28:25;1.30;;;0.68;;
45909;SDS011;31622;55.416;37.840;2023-03-01T15:30:54;2.60;;;0.50;;
45909;SDS011;31622;55.416;37.840;2023-03-01T15:33:36;1.98;;;0.70;;
45909;SDS011;31622;55.416;37.840;2023-03-01T15:38:58;1.83;;;0.88;;
45909;SDS011;31622;55.416;37.840;2023-03-01T15:41:45;1.35;;;0.75;;
45909;SDS011;31622;55.416;37.840;2023-03-01T15:44:32;2.17;;;0.80;;
45909;SDS011;31622;55.416;37.840;2023-03-01T15:46:59;1.88;;;0.60;;
45909;SDS011;31622;55.416;37.840;2023-03-01T15:51:55;1.55;;;0.68;;
45909;SDS011;31622;55.416;37.840;2023-03-01T15:54:23;1.65;;;0.60;;
45909;SDS011;31622;55.416;37.840;2023-03-01T15:56:51;1.30;;;0.60;;
45909;SDS011;31622;55.416;37.840;2023-03-01T15:59:17;1.63;;;0.60;;
45909;SDS011;31622;55.416;37.840;2023-03-01T16:01:43;1.48;;;0.70;;
45909;SDS011;31622;55.416;37.840;2023-03-01T16:04:13;2.75;;;0.80;;
45909;SDS011;31622;55.416;37.840;2023-03-01T16:06:54;2.15;;;0.70;;
45909;SDS011;31622;55.416;37.840;2023-03-01T16:09:23;2.20;;;0.90;;
45909;SDS011;31622;55.416;37.840;2023-03-01T16:11:50;2.30;;;0.93;;
45909;SDS011;31622;55.416;37.840;2023-03-01T16:14:17;2.88;;;0.75;;
45909;SDS011;31622;55.416;37.840;2023-03-01T16:16:43;2.92;;;0.63;;
45909;SDS011;31622;55.416;37.840;2023-03-01T16:19:09;1.88;;;0.63;;
45909;SDS011;31622;55.416;37.840;2023-03-01T16:21:35;3.47;;;0.93;;
45909;SDS011;31622;55.416;37.840;2023-03-01T16:24:01;1.20;;;0.60;;
45909;SDS011;31622;55.416;37.840;2023-03-01T16:26:27;3.30;;;0.80;;
45909;SDS011;31622;55.416;37.840;2023-03-01T16:28:56;1.77;;;0.80;;
45909;SDS011;31622;55.416;37.840;2023-03-01T16:31:22;1.63;;;0.60;;
45909;SDS011;31622;55.416;37.840;2023-03-01T16:33:53;2.28;;;0.80;;
45909;SDS011;31622;55.416;37.840;2023-03-01T16:36:20;3.03;;;0.90;;
45909;SDS011;31622;55.416;37.840;2023-03-01T16:38:49;2.75;;;0.82;;
45909;SDS011;31622;55.416;37.840;2023-03-01T16:41:16;2.00;;;0.60;;
45909;SDS011;31622;55.416;37.840;2023-03-01T16:43:43;4.10;;;0.82;;
45909;SDS011;31622;55.416;37.840;2023-03-01T16:46:15;1.52;;;0.80;;
45909;SDS011;31622;55.416;37.840;2023-03-01T16:48:43;1.48;;;0.65;;
45909;SDS011;31622;55.416;37.840;2023-03-01T16:51:09;2.67;;;0.75;;
45909;SDS011;31622;55.416;37.840;2023-03-01T16:53:35;1.65;;;0.82;;
45909;SDS011;31622;55.416;37.840;2023-03-01T16:56:03;2.65;;;0.90;;
45909;SDS011;31622;55.416;37.840;2023-03-01T16:58:30;2.00;;;1.00;;
45909;SDS011;31622;55.416;37.840;2023-03-01T17:00:56;3.65;;;0.70;;